Time;durP1;ratioP1;P1;durP2;ratioP2;P2;SDS_P1;SDS_P2;PMS_P1;PMS_P2;Temp;Humidity;BMP_temperature;BMP_pressure;BME280_temperature;BME280_humidity;BME280_pressure;Samples;Min_cycle;Max_cycle;Signal;HPM_P1;HPM_P2
2022/10/23 00:01:13;;;;;;;6.50;1.17;;;13.40;99.90;;;;;;4915964;29;20048;-81
2022/10/23 00:03:39;;;;;;;5.18;1.60;;;13.50;99.90;;;;;;4908944;29;20059;-80
2022/10/23 00:06:06;;;;;;;6.88;1.42;;;13.40;99.90;;;;;;4907996;29;20053;-82
2022/10/23 00:08:33;;;;;;;6.60;1.48;;;13.50;99.90;;;;;;4911346;29;20062;-83
2022/10/23 00:11:00;;;;;;;3.28;1.58;;;13.40;99.90;;;;;;4910377;29;20051;-81
2022/10/23 00:13:27;;;;;;;4.15;1.42;;;13.40;99.90;;;;;;4907702;29;20056;-82
2022/10/23 00:15:53;;;;;;;5.95;1.30;;;13.40;99.90;;;;;;4902322;29;20049;-81
2022/10/23 00:18:20;;;;;;;4.55;1.40;;;13.40;99.90;;;;;;4908881;29;20417;-80
2022/10/23 00:20:47;;;;;;;5.03;1.08;;;13.40;99.90;;;;;;4913187;29;20498;-77
2022/10/23 00:23:16;;;;;;;11.40;1.50;;;13.40;99.90;;;;;;4907084;29;20057;-82
2022/10/23 00:25:42;;;;;;;3.15;1.30;;;13.40;99.90;;;;;;4896914;29;20053;-83
2022/10/23 00:28:09;;;;;;;5.97;1.60;;;13.40;99.90;;;;;;4915549;29;20062;-80
2022/10/23 00:30:36;;;;;;;6.07;1.58;;;13.40;99.90;;;;;;4908122;29;20049;-82
2022/10/23 00:33:03;;;;;;;7.93;1.58;;;13.40;99.90;;;;;;4901818;29;20059;-80
2022/10/23 00:35:29;;;;;;;3.63;1.75;;;13.50;99.90;;;;;;4907567;29;20048;-81
2022/10/23 00:37:56;;;;;;;6.40;1.52;;;13.40;99.90;;;;;;4912044;29;20053;-84
2022/10/23 00:40:23;;;;;;;5.65;1.23;;;13.50;99.90;;;;;;4908635;29;20053;-80
2022/10/23 00:42:49;;;;;;;6.63;1.65;;;13.50;99.90;;;;;;4903785;29;20055;-77
2022/10/23 00:45:24;;;;;;;4.55;1.40;;;13.50;99.90;;;;;;4914215;29;20048;-80
2022/10/23 00:47:51;;;;;;;6.38;1.45;;;13.50;99.90;;;;;;4911105;29;20116;-80
2022/10/23 00:50:21;;;;;;;3.33;1.40;;;13.50;99.90;;;;;;4906536;29;20055;-81
2022/10/23 00:52:51;;;;;;;8.00;1.70;;;13.50;99.90;;;;;;4908988;29;20420;-80
2022/10/23 00:55:21;;;;;;;3.45;1.42;;;13.50;99.90;;;;;;4909233;29;20056;-78
2022/10/23 00:57:49;;;;;;;3.90;1.65;;;13.50;99.90;;;;;;4908263;29;20060;-83
2022/10/23 01:00:23;;;;;;;6.55;1.70;;;13.50;99.90;;;;;;4903371;29;20056;-82
2022/10/23 01:02:51;;;;;;;7.40;1.63;;;13.50;99.90;;;;;;4915930;29;20052;-81
2022/10/23 01:05:26;;;;;;;7.88;1.60;;;13.50;99.90;;;;;;4911747;29;20052;-83
2022/10/23 01:08:03;;;;;;;4.10;1.00;;;13.50;99.90;;;;;;4905927;29;20151;-80
2022/10/23 01:10:39;;;;;;;5.30;1.33;;;13.50;99.90;;;;;;4906619;29;20068;-81
2022/10/23 01:13:13;;;;;;;3.72;1.40;;;13.50;99.90;;;;;;4914526;29;20495;-80
2022/10/23 01:15:52;;;;;;;2.50;1.42;;;13.40;99.90;;;;;;4907384;29;20048;-81
2022/10/23 01:18:34;;;;;;;3.33;1.17;;;13.40;99.90;;;;;;4902423;29;20048;-81
2022/10/23 01:21:15;;;;;;;3.65;1.23;;;13.40;99.90;;;;;;4915434;29;20048;-79
2022/10/23 01:24:00;;;;;;;5.00;1.38;;;13.40;99.90;;;;;;4909931;29;20056;-81
2022/10/23 01:26:44;;;;;;;3.10;1.20;;;13.40;99.90;;;;;;4914737;29;20513;-80
2022/10/23 01:29:20;;;;;;;8.55;4.18;;;13.40;99.90;;;;;;4913998;29;20053;-83
2022/10/23 01:32:08;;;;;;;7.05;1.73;;;13.40;99.90;;;;;;4907218;29;20052;-81
2022/10/23 01:35:07;;;;;;;2.80;1.80;;;13.30;99.90;;;;;;4889785;29;20052;-80
2022/10/23 01:37:50;;;;;;;3.50;1.10;;;13.30;99.90;;;;;;4880833;29;20123;-80
2022/10/23 01:40:26;;;;;;;4.45;1.15;;;13.30;99.90;;;;;;4916293;29;20049;-79
2022/10/23 01:42:57;;;;;;;5.28;1.13;;;13.30;99.90;;;;;;4912748;29;20075;-80
2022/10/23 01:45:46;;;;;;;9.45;1.67;;;13.30;99.90;;;;;;4910630;29;20048;-81
2022/10/23 01:48:18;;;;;;;2.85;1.30;;;13.30;99.90;;;;;;4913419;29;20067;-81
2022/10/23 01:50:45;;;;;;;7.03;1.40;;;13.40;99.90;;;;;;4902093;29;20421;-80
2022/10/23 01:53:12;;;;;;;7.45;1.20;;;13.40;99.90;;;;;;4893568;29;20523;-81
2022/10/23 01:55:40;;;;;;;7.78;1.27;;;13.40;99.90;;;;;;4908515;29;20052;-80
2022/10/23 01:58:14;;;;;;;1.30;0.85;;;13.40;99.90;;;;;;4906822;29;20053;-80
2022/10/23 02:00:43;;;;;;;6.85;1.00;;;13.50;99.90;;;;;;4902172;29;20048;-81
2022/10/23 02:03:12;;;;;;;5.55;1.33;;;13.40;99.90;;;;;;4905554;29;20059;-79
2022/10/23 02:05:38;;;;;;;5.13;1.30;;;13.50;99.90;;;;;;4913265;29;20135;-79
2022/10/23 02:08:05;;;;;;;6.18;1.50;;;13.40;99.90;;;;;;4907775;29;20076;-80
2022/10/23 02:11:02;;;;;;;12.63;1.60;;;13.40;99.90;;;;;;4902557;29;20064;-82
2022/10/23 02:14:28;;;;;;;8.93;1.40;;;13.40;99.90;;;;;;4914713;29;20056;-80
2022/10/23 02:17:00;;;;;;;5.43;1.30;;;13.40;99.90;;;;;;4831654;29;20524;-80
2022/10/23 02:19:30;;;;;;;8.23;1.58;;;13.30;99.90;;;;;;4897840;29;20055;-80
2022/10/23 02:22:16;;;;;;;2.70;1.00;;;13.30;99.90;;;;;;4909496;29;20059;-81
2022/10/23 02:24:57;;;;;;;8.48;1.33;;;13.30;99.90;;;;;;4909226;29;20498;-79
2022/10/23 02:27:49;;;;;;;3.28;1.70;;;13.20;99.90;;;;;;4911273;29;20052;-77
2022/10/23 02:30:18;;;;;;;4.45;1.60;;;13.20;99.90;;;;;;4914205;29;20091;-80
2022/10/23 02:32:49;;;;;;;5.93;1.73;;;13.20;99.90;;;;;;4922962;29;20049;-78
2022/10/23 02:35:16;;;;;;;;;;;13.10;99.90;;;;;;4913050;29;20059;-78
2022/10/23 02:37:50;;;;;;;3.17;1.70;;;13.10;99.90;;;;;;4914908;29;20010;-79
2022/10/23 02:40:17;;;;;;;4.45;1.80;;;13.10;99.90;;;;;;4925629;29;20048;-81
2022/10/23 02:43:23;;;;;;;4.35;1.98;;;13.00;99.90;;;;;;4921128;29;20135;-78
2022/10/23 02:46:17;;;;;;;4.50;2.03;;;13.00;99.90;;;;;;4854545;29;20050;-80
2022/10/23 02:48:50;;;;;;;2.95;1.27;;;13.00;99.90;;;;;;4919314;29;20048;-81
2022/10/23 02:51:30;;;;;;;13.80;1.73;;;12.90;99.90;;;;;;4925444;29;20050;-79
2022/10/23 02:54:05;;;;;;;;;;;12.90;99.90;;;;;;4919690;29;20116;-80
2022/10/23 02:57:01;;;;;;;2.95;1.30;;;12.90;99.90;;;;;;4914656;29;19924;-81
2022/10/23 02:59:39;;;;;;;8.48;1.30;;;12.90;99.90;;;;;;4918051;29;20052;-82
2022/10/23 03:02:29;;;;;;;5.63;1.55;;;12.90;99.90;;;;;;4908912;29;20521;-83
2022/10/23 03:05:03;;;;;;;3.08;1.65;;;12.80;99.90;;;;;;4911425;29;20063;-83
2022/10/23 03:07:30;;;;;;;2.50;1.27;;;12.90;99.90;;;;;;4918295;29;20056;-83
2022/10/23 03:09:57;;;;;;;7.18;1.70;;;12.80;99.90;;;;;;4908440;29;20056;-80
2022/10/23 03:12:24;;;;;;;8.05;1.83;;;12.80;99.90;;;;;;4903754;29;20059;-83
2022/10/23 03:14:50;;;;;;;4.47;1.25;;;12.80;99.90;;;;;;4919010;29;20048;-82
2022/10/23 03:17:17;;;;;;;2.40;1.38;;;12.80;99.90;;;;;;4923367;29;20052;-80
2022/10/23 03:19:44;;;;;;;2.55;1.40;;;12.80;99.90;;;;;;4919094;29;20055;-82
2022/10/23 03:22:10;;;;;;;2.45;1.40;;;12.80;99.90;;;;;;4916998;29;20055;-81
2022/10/23 03:24:37;;;;;;;4.50;1.30;;;12.70;99.90;;;;;;4927194;29;20082;-82
2022/10/23 03:27:04;;;;;;;5.03;1.40;;;12.70;99.90;;;;;;4917410;29;20059;-80
2022/10/23 03:29:30;;;;;;;10.13;2.05;;;12.70;99.90;;;;;;4913015;29;20139;-80
2022/10/23 03:31:57;;;;;;;2.95;1.60;;;12.60;99.90;;;;;;4921284;29;20056;-80
2022/10/23 03:34:24;;;;;;;3.05;1.50;;;12.60;99.90;;;;;;4919198;29;20071;-81
2022/10/23 03:36:50;;;;;;;6.57;1.52;;;12.60;99.90;;;;;;4919400;29;20048;-78
2022/10/23 03:39:17;;;;;;;3.83;1.67;;;12.60;99.90;;;;;;4905966;29;20049;-84
2022/10/23 03:41:44;;;;;;;4.60;1.90;;;12.60;99.90;;;;;;4919507;29;20056;-83
2022/10/23 03:44:10;;;;;;;5.80;1.60;;;12.60;99.90;;;;;;4913281;29;20075;-81
2022/10/23 03:46:37;;;;;;;4.18;2.05;;;12.60;99.90;;;;;;4909087;29;20062;-82
2022/10/23 03:49:04;;;;;;;9.13;2.38;;;12.60;99.90;;;;;;4910710;29;20068;-82
2022/10/23 03:51:31;;;;;;;3.83;1.65;;;12.60;99.90;;;;;;4917576;29;20052;-80
2022/10/23 03:53:57;;;;;;;6.18;1.45;;;12.50;99.90;;;;;;4905153;29;20061;-82
2022/10/23 03:56:24;;;;;;;6.07;1.80;;;12.50;99.90;;;;;;4904180;29;20053;-81
2022/10/23 03:58:51;;;;;;;6.78;1.70;;;12.50;99.90;;;;;;4914353;29;20044;-83
2022/10/23 04:01:18;;;;;;;5.78;1.70;;;12.50;99.90;;;;;;4915599;29;20055;-83
2022/10/23 04:03:45;;;;;;;8.10;2.60;;;12.50;99.90;;;;;;4909790;29;20044;-81
2022/10/23 04:06:11;;;;;;;5.38;2.17;;;12.40;99.90;;;;;;4906300;29;20174;-83
2022/10/23 04:08:38;;;;;;;6.70;2.00;;;12.40;99.90;;;;;;4918415;29;20143;-83
2022/10/23 04:11:05;;;;;;;5.70;2.15;;;12.40;99.90;;;;;;4912911;29;20076;-83
2022/10/23 04:13:31;;;;;;;8.18;2.42;;;12.40;99.90;;;;;;4908428;29;20054;-83
2022/10/23 04:15:58;;;;;;;9.23;2.10;;;12.40;99.90;;;;;;4908772;29;20059;-82
2022/10/23 04:18:25;;;;;;;4.57;1.90;;;12.40;99.90;;;;;;4916838;29;20525;-81
2022/10/23 04:20:52;;;;;;;6.22;1.83;;;12.40;99.90;;;;;;4907907;29;20055;-81
2022/10/23 04:23:19;;;;;;;4.80;2.03;;;12.40;99.90;;;;;;4904177;29;20048;-83
2022/10/23 04:25:45;;;;;;;7.20;2.15;;;12.40;99.90;;;;;;4917301;29;20510;-81
2022/10/23 04:28:13;;;;;;;6.45;2.20;;;12.40;99.90;;;;;;4912543;29;20621;-82
2022/10/23 04:30:40;;;;;;;8.57;3.03;;;12.40;99.90;;;;;;4906661;29;20056;-82
2022/10/23 04:33:07;;;;;;;5.65;2.28;;;12.40;99.90;;;;;;4910013;29;20095;-83
2022/10/23 04:35:33;;;;;;;7.75;2.40;;;12.40;99.90;;;;;;4916543;29;20090;-82
2022/10/23 04:38:00;;;;;;;5.60;2.38;;;12.40;99.90;;;;;;4911021;29;20044;-82
2022/10/23 04:40:27;;;;;;;6.10;1.77;;;12.40;99.90;;;;;;4903179;29;20052;-82
2022/10/23 04:42:53;;;;;;;2.78;1.58;;;12.40;99.90;;;;;;4907612;29;20052;-82
2022/10/23 04:45:20;;;;;;;7.75;1.98;;;12.30;99.90;;;;;;4912646;29;20158;-81
2022/10/23 04:47:47;;;;;;;4.22;1.75;;;12.30;99.90;;;;;;4908465;29;20068;-81
2022/10/23 04:50:14;;;;;;;7.07;1.80;;;12.20;99.90;;;;;;4903147;29;20052;-83
2022/10/23 04:52:41;;;;;;;7.10;1.70;;;12.20;99.90;;;;;;4909806;29;20064;-81
2022/10/23 04:55:08;;;;;;;4.65;1.60;;;12.20;99.90;;;;;;4905574;29;20522;-83
2022/10/23 04:57:35;;;;;;;8.93;1.77;;;12.20;99.90;;;;;;4902830;29;20406;-81
2022/10/23 05:00:04;;;;;;;5.32;1.40;;;12.20;99.90;;;;;;4908642;29;20058;-82
2022/10/23 05:02:31;;;;;;;7.70;1.70;;;12.20;99.90;;;;;;4910927;29;20418;-83
2022/10/23 05:04:57;;;;;;;2.80;1.33;;;12.20;99.90;;;;;;4908022;29;20122;-83
2022/10/23 05:07:24;;;;;;;5.85;1.70;;;12.20;99.90;;;;;;4904612;29;20072;-80
2022/10/23 05:09:51;;;;;;;7.35;1.80;;;12.20;99.90;;;;;;4917516;29;20058;-83
2022/10/23 05:12:18;;;;;;;7.43;2.10;;;12.10;99.90;;;;;;4910871;29;20062;-82
2022/10/23 05:14:45;;;;;;;2.45;1.30;;;12.10;99.90;;;;;;4906767;29;20051;-82
2022/10/23 05:17:17;;;;;;;1.73;1.17;;;12.00;99.90;;;;;;4906338;29;20121;-83
2022/10/23 05:19:51;;;;;;;1.38;1.25;;;12.00;99.90;;;;;;4913950;29;20059;-81
2022/10/23 05:22:19;;;;;;;9.93;1.50;;;12.00;99.90;;;;;;4908693;29;20055;-81
2022/10/23 05:24:46;;;;;;;4.38;1.60;;;12.00;99.90;;;;;;4904588;29;20063;-82
2022/10/23 05:27:16;;;;;;;4.80;1.50;;;12.00;99.90;;;;;;4913846;29;20064;-84
2022/10/23 05:29:43;;;;;;;4.60;1.38;;;12.00;99.90;;;;;;4907196;29;20052;-81
2022/10/23 05:32:13;;;;;;;6.35;1.38;;;12.00;99.90;;;;;;4906455;29;20163;-80
2022/10/23 05:34:40;;;;;;;5.45;1.35;;;12.00;99.90;;;;;;4903121;29;20083;-83
2022/10/23 05:37:11;;;;;;;3.60;1.90;;;11.90;99.90;;;;;;4915708;29;20048;-80
2022/10/23 05:39:37;;;;;;;;;;;11.90;99.90;;;;;;4906230;29;20052;-81
2022/10/23 05:42:04;;;;;;;5.30;1.10;;;11.90;99.90;;;;;;4915399;29;19929;-80
2022/10/23 05:44:31;;;;;;;2.55;1.48;;;11.80;99.90;;;;;;4912410;29;20053;-82
2022/10/23 05:46:57;;;;;;;2.85;1.92;;;11.80;99.90;;;;;;4912689;29;20057;-81
2022/10/23 05:49:25;;;;;;;8.23;1.90;;;11.80;99.90;;;;;;4907074;29;20045;-83
2022/10/23 05:51:52;;;;;;;3.30;1.80;;;11.80;99.90;;;;;;4903278;29;20049;-82
2022/10/23 05:54:18;;;;;;;3.50;1.20;;;11.90;99.90;;;;;;4916025;29;20056;-82
2022/10/23 05:56:45;;;;;;;4.50;1.40;;;11.90;99.90;;;;;;4908891;29;20049;-83
2022/10/23 05:59:12;;;;;;;3.45;2.00;;;11.80;99.90;;;;;;4894431;29;20052;-83
2022/10/23 06:01:38;;;;;;;1.90;1.10;;;11.90;99.90;;;;;;4910068;29;20082;-81
2022/10/23 06:04:05;;;;;;;8.25;2.20;;;11.90;99.90;;;;;;4914873;29;20044;-82
2022/10/23 06:06:32;;;;;;;6.28;2.47;;;11.80;99.90;;;;;;4905898;29;20066;-81
2022/10/23 06:08:59;;;;;;;6.25;2.25;;;11.80;99.90;;;;;;4904327;29;20053;-82
2022/10/23 06:11:25;;;;;;;2.85;2.00;;;11.90;99.90;;;;;;4919962;29;20059;-81
2022/10/23 06:13:52;;;;;;;3.33;2.45;;;11.90;99.90;;;;;;4911320;29;20056;-81
2022/10/23 06:16:21;;;;;;;10.57;2.60;;;11.90;99.90;;;;;;4906415;29;20112;-83
2022/10/23 06:18:48;;;;;;;6.38;2.08;;;11.90;99.90;;;;;;4905039;29;20052;-82
2022/10/23 06:21:16;;;;;;;7.75;2.38;;;11.90;99.90;;;;;;4906735;29;20059;-81
2022/10/23 06:23:43;;;;;;;4.43;2.45;;;11.90;99.90;;;;;;4912440;29;20507;-80
2022/10/23 06:26:13;;;;;;;4.20;1.90;;;11.90;99.90;;;;;;4907330;29;20052;-81
2022/10/23 06:28:40;;;;;;;9.32;1.98;;;11.90;99.90;;;;;;4914620;29;20078;-81
2022/10/23 06:31:08;;;;;;;5.22;2.00;;;11.90;99.90;;;;;;4915087;29;20144;-81
2022/10/23 06:33:35;;;;;;;4.80;2.00;;;11.90;99.90;;;;;;4908828;29;20161;-81
2022/10/23 06:36:02;;;;;;;3.60;2.00;;;11.90;99.90;;;;;;4905772;29;20049;-83
2022/10/23 06:38:35;;;;;;;5.75;2.35;;;11.90;99.90;;;;;;4914886;29;20049;-83
2022/10/23 06:41:03;;;;;;;5.30;2.38;;;11.90;99.90;;;;;;4912227;29;20052;-83
2022/10/23 06:43:31;;;;;;;2.90;1.98;;;12.00;99.90;;;;;;4909125;29;20048;-81
2022/10/23 06:46:02;;;;;;;5.45;1.60;;;12.00;99.90;;;;;;4914444;29;20055;-81
2022/10/23 06:48:30;;;;;;;3.63;1.88;;;12.00;99.90;;;;;;4910678;29;20056;-79
2022/10/23 06:50:57;;;;;;;8.60;1.88;;;12.00;99.90;;;;;;4908723;29;20059;-80
2022/10/23 06:53:24;;;;;;;3.50;1.90;;;12.00;99.90;;;;;;4907321;29;20053;-83
2022/10/23 06:55:51;;;;;;;5.82;1.88;;;12.00;99.90;;;;;;4914881;29;20081;-80
2022/10/23 06:58:21;;;;;;;5.72;1.95;;;12.10;99.90;;;;;;4911920;29;20057;-81
2022/10/23 07:00:47;;;;;;;3.80;2.20;;;12.10;99.90;;;;;;4914710;29;20083;-80
2022/10/23 07:03:14;;;;;;;7.60;2.55;;;12.20;99.90;;;;;;4912935;29;20052;-79
2022/10/23 07:05:43;;;;;;;7.72;2.08;;;12.20;99.90;;;;;;4917494;29;20059;-80
2022/10/23 07:08:10;;;;;;;4.22;1.77;;;12.20;99.90;;;;;;4918178;29;20060;-80
2022/10/23 07:10:37;;;;;;;4.40;1.80;;;12.30;99.90;;;;;;4913910;29;20092;-80
2022/10/23 07:13:04;;;;;;;2.60;1.40;;;12.30;99.90;;;;;;4918673;29;20399;-80
2022/10/23 07:15:31;;;;;;;5.25;1.85;;;12.40;99.90;;;;;;4917975;29;20136;-79
2022/10/23 07:17:58;;;;;;;3.53;1.60;;;12.40;99.90;;;;;;4913229;29;20139;-82
2022/10/23 07:20:24;;;;;;;6.25;1.60;;;12.50;99.90;;;;;;4911044;29;20049;-81
2022/10/23 07:22:53;;;;;;;7.13;1.73;;;12.50;99.90;;;;;;4918050;29;20061;-81
2022/10/23 07:25:25;;;;;;;5.20;1.30;;;12.50;99.90;;;;;;4908613;29;20056;-82
2022/10/23 07:27:54;;;;;;;5.15;1.73;;;12.60;99.90;;;;;;4907825;29;20484;-82
2022/10/23 07:30:21;;;;;;;2.38;1.45;;;12.60;99.90;;;;;;4909861;29;20056;-81
2022/10/23 07:32:47;;;;;;;4.35;1.30;;;12.60;99.90;;;;;;4915079;29;20060;-83
2022/10/23 07:35:15;;;;;;;9.70;1.27;;;12.70;99.90;;;;;;4910351;29;20457;-82
2022/10/23 07:37:42;;;;;;;5.32;1.58;;;12.70;99.90;;;;;;4908688;29;20056;-80
2022/10/23 07:40:09;;;;;;;3.53;1.20;;;12.70;99.90;;;;;;4922890;29;20048;-81
2022/10/23 07:42:37;;;;;;;7.70;2.70;;;12.80;99.90;;;;;;4914328;29;20059;-82
2022/10/23 07:45:06;;;;;;;8.77;6.07;;;12.90;99.90;;;;;;4902380;29;20053;-80
2022/10/23 07:47:33;;;;;;;15.35;6.03;;;12.90;99.90;;;;;;4910591;29;20048;-83
2022/10/23 07:49:59;;;;;;;7.43;2.97;;;12.90;99.90;;;;;;4915526;29;20502;-80
2022/10/23 07:52:26;;;;;;;7.40;1.60;;;12.90;99.90;;;;;;4908294;29;20049;-81
2022/10/23 07:55:00;;;;;;;10.63;2.75;;;13.00;99.90;;;;;;4907239;29;20590;-82
2022/10/23 07:57:27;;;;;;;4.78;2.85;;;13.00;99.90;;;;;;4915975;29;20052;-81
2022/10/23 07:59:53;;;;;;;7.55;3.88;;;13.10;99.90;;;;;;4912984;29;20063;-83
2022/10/23 08:02:20;;;;;;;2.15;1.40;;;13.10;99.90;;;;;;4890795;29;20048;-82
2022/10/23 08:04:50;;;;;;;5.30;3.03;;;13.20;99.90;;;;;;4909876;29;20462;-82
2022/10/23 08:07:16;;;;;;;8.20;2.40;;;13.20;99.90;;;;;;4913068;29;20052;-82
2022/10/23 08:09:43;;;;;;;6.40;2.70;;;13.20;99.90;;;;;;4904343;29;20501;-80
2022/10/23 08:12:10;;;;;;;7.05;5.20;;;13.30;99.90;;;;;;4904138;29;20053;-81
2022/10/23 08:14:36;;;;;;;5.47;4.97;;;13.40;99.90;;;;;;4908687;29;20055;-80
2022/10/23 08:17:03;;;;;;;6.97;5.03;;;13.40;99.90;;;;;;4913626;29;20048;-82
2022/10/23 08:19:31;;;;;;;4.72;3.53;;;13.50;99.90;;;;;;4908789;29;20048;-83
2022/10/23 08:21:57;;;;;;;6.53;3.30;;;13.60;99.90;;;;;;4903329;29;20056;-84
2022/10/23 08:24:24;;;;;;;4.38;2.78;;;13.70;99.90;;;;;;4912482;29;20450;-81
2022/10/23 08:26:51;;;;;;;10.13;2.53;;;13.80;99.90;;;;;;4912025;29;20063;-82
2022/10/23 08:29:17;;;;;;;6.05;2.28;;;13.90;99.90;;;;;;4902070;29;20056;-84
2022/10/23 08:31:44;;;;;;;4.28;2.58;;;14.00;99.90;;;;;;4908562;29;20510;-79
2022/10/23 08:34:11;;;;;;;4.05;2.17;;;14.00;99.90;;;;;;4913198;29;20056;-82
2022/10/23 08:36:38;;;;;;;4.55;2.03;;;14.20;99.90;;;;;;4905543;29;20430;-80
2022/10/23 08:39:05;;;;;;;3.15;2.20;;;14.30;99.90;;;;;;4904813;29;20048;-85
2022/10/23 08:41:35;;;;;;;5.15;1.75;;;14.30;99.90;;;;;;4917789;29;20064;-81
2022/10/23 08:44:17;;;;;;;2.95;2.22;;;14.40;99.90;;;;;;4906224;29;20052;-82
2022/10/23 08:46:48;;;;;;;5.75;2.40;;;14.50;99.90;;;;;;4904339;29;20059;-82
2022/10/23 08:53:15;;;;;;;2.58;1.52;;;14.60;99.90;;;;;;4911331;29;20047;-83
2022/10/23 08:55:45;;;;;;;6.05;2.17;;;14.70;99.90;;;;;;4903656;29;20055;-80
2022/10/23 08:58:40;;;;;;;5.60;2.28;;;14.70;99.90;;;;;;4905130;29;20049;-81
2022/10/23 09:01:37;;;;;;;5.15;2.65;;;14.90;99.90;;;;;;4912711;29;20078;-84
2022/10/23 09:04:05;;;;;;;4.55;2.80;;;14.90;99.90;;;;;;4903718;29;20112;-81
2022/10/23 09:06:53;;;;;;;4.70;2.83;;;15.00;99.90;;;;;;4906722;29;20056;-82
2022/10/23 09:09:28;;;;;;;10.63;2.90;;;15.00;99.90;;;;;;4910397;29;20063;-81
2022/10/23 09:12:08;;;;;;;9.10;2.50;;;15.10;99.90;;;;;;4903845;29;20048;-82
2022/10/23 09:14:56;;;;;;;4.97;2.50;;;15.10;99.90;;;;;;4900058;29;20058;-81
2022/10/23 09:17:23;;;;;;;5.60;2.38;;;15.10;99.90;;;;;;4915868;29;20059;-80
2022/10/23 09:20:05;;;;;;;5.88;2.72;;;15.20;99.90;;;;;;4911534;29;20131;-83
2022/10/23 09:22:31;;;;;;;3.80;2.40;;;15.30;99.90;;;;;;4904089;29;20052;-81
2022/10/23 09:24:58;;;;;;;4.88;2.10;;;15.30;99.90;;;;;;4913853;29;20057;-82
2022/10/23 09:27:25;;;;;;;5.90;2.35;;;15.40;99.90;;;;;;4912088;29;20529;-79
2022/10/23 09:29:54;;;;;;;10.27;2.67;;;15.50;99.90;;;;;;4906307;29;20575;-80
2022/10/23 09:32:35;;;;;;;8.38;2.42;;;15.50;99.90;;;;;;4903493;29;20058;-81
2022/10/23 09:35:04;;;;;;;3.67;2.08;;;15.70;99.90;;;;;;4914849;29;20056;-79
2022/10/23 09:37:33;;;;;;;2.40;2.17;;;15.70;99.90;;;;;;4908397;29;20078;-81
2022/10/23 09:40:01;;;;;;;4.88;2.20;;;15.80;99.90;;;;;;4905119;29;20049;-81
2022/10/23 09:42:28;;;;;;;6.10;2.10;;;15.90;99.90;;;;;;4912726;29;20048;-83
2022/10/23 09:44:56;;;;;;;6.05;2.15;;;16.00;99.90;;;;;;4913663;29;20049;-82
2022/10/23 09:47:24;;;;;;;5.40;2.53;;;16.10;99.90;;;;;;4904826;29;20062;-82
2022/10/23 09:49:54;;;;;;;5.47;2.55;;;16.20;99.90;;;;;;4905422;29;20060;-82
2022/10/23 09:52:33;;;;;;;8.20;2.25;;;16.30;99.90;;;;;;4914972;29;20056;-82
2022/10/23 09:55:14;;;;;;;5.43;2.65;;;16.30;99.90;;;;;;4905515;29;20499;-84
2022/10/23 09:57:43;;;;;;;5.25;1.80;;;16.40;99.90;;;;;;4903233;29;20048;-80
2022/10/23 10:00:13;;;;;;;4.30;1.70;;;16.40;99.90;;;;;;4907790;29;20052;-82
2022/10/23 10:02:41;;;;;;;3.78;1.45;;;16.50;99.90;;;;;;4907432;29;20048;-80
2022/10/23 10:05:30;;;;;;;5.75;1.48;;;16.60;99.90;;;;;;4906287;29;20059;-81
2022/10/23 10:08:12;;;;;;;3.97;2.03;;;16.60;99.90;;;;;;4903435;29;20417;-80
2022/10/23 10:10:50;;;;;;;3.60;1.70;;;16.70;99.90;;;;;;4926065;29;20052;-81
2022/10/23 10:13:32;;;;;;;5.10;1.63;;;16.80;99.90;;;;;;4889949;29;20426;-84
2022/10/23 10:16:14;;;;;;;3.53;1.50;;;16.80;99.90;;;;;;4902232;29;20702;-82
2022/10/23 10:19:11;;;;;;;3.63;1.88;;;16.90;99.90;;;;;;4912531;29;20048;-83
2022/10/23 10:21:56;;;;;;;5.50;1.80;;;16.90;99.90;;;;;;4911231;29;20049;-83
2022/10/23 10:24:45;;;;;;;6.35;1.85;;;17.00;99.90;;;;;;4888615;29;20104;-85
2022/10/23 10:27:41;;;;;;;7.07;2.08;;;17.10;99.90;;;;;;4916309;29;20139;-84
2022/10/23 10:30:20;;;;;;;4.40;1.73;;;17.20;99.90;;;;;;4909590;29;20427;-81
2022/10/23 10:33:20;;;;;;;5.80;1.80;;;17.20;99.90;;;;;;4903802;29;20087;-84
2022/10/23 10:35:50;;;;;;;3.15;1.50;;;17.30;99.90;;;;;;4901158;29;20054;-84
2022/10/23 10:38:35;;;;;;;2.17;1.57;;;17.40;99.90;;;;;;4912596;29;20052;-80
2022/10/23 10:41:43;;;;;;;6.55;1.83;;;17.40;99.90;;;;;;4906596;29;20049;-83
2022/10/23 10:44:09;;;;;;;4.05;1.45;;;17.60;99.90;;;;;;4912102;29;20055;-82
2022/10/23 10:46:53;;;;;;;5.72;1.60;;;17.60;99.90;;;;;;4912563;29;20063;-79
2022/10/23 10:49:39;;;;;;;6.30;1.38;;;17.70;99.90;;;;;;4890436;29;20056;-80
2022/10/23 10:52:27;;;;;;;5.50;1.63;;;17.90;99.90;;;;;;4907652;29;20429;-81
2022/10/23 10:55:15;;;;;;;4.03;1.48;;;18.10;99.90;;;;;;4914176;29;20053;-79
2022/10/23 10:57:57;;;;;;;5.50;1.60;;;18.10;99.90;;;;;;4906286;29;20060;-78
2022/10/23 11:00:28;;;;;;;4.13;1.30;;;18.20;99.90;;;;;;4903076;29;20048;-82
2022/10/23 11:03:18;;;;;;;1.95;1.30;;;18.30;99.90;;;;;;4915570;29;20431;-85
2022/10/23 11:05:49;;;;;;;3.45;1.92;;;18.40;99.90;;;;;;4899834;29;20048;-82
2022/10/23 11:08:21;;;;;;;5.80;1.70;;;18.50;99.90;;;;;;4904798;29;20068;-81
2022/10/23 11:10:52;;;;;;;6.00;1.45;;;18.60;99.90;;;;;;4913984;29;20059;-83
2022/10/23 11:13:39;;;;;;;3.33;1.42;;;18.60;99.90;;;;;;4916369;29;20396;-83
2022/10/23 11:16:24;;;;;;;2.95;1.65;;;18.70;99.90;;;;;;4905298;29;20056;-82
2022/10/23 11:19:11;;;;;;;2.90;1.52;;;18.80;99.90;;;;;;4913431;29;20056;-81
2022/10/23 11:22:02;;;;;;;7.10;1.58;;;18.90;99.90;;;;;;4916977;29;20048;-82
2022/10/23 11:25:06;;;;;;;6.35;1.65;;;19.00;99.90;;;;;;4891245;29;20225;-83
2022/10/23 11:27:40;;;;;;;5.88;1.98;;;19.20;99.90;;;;;;4910412;29;20070;-83
2022/10/23 11:30:21;;;;;;;8.80;1.20;;;19.20;99.90;;;;;;4916809;29;20056;-83
2022/10/23 11:33:07;;;;;;;3.78;1.23;;;19.30;99.90;;;;;;4910476;29;20056;-81
2022/10/23 11:36:04;;;;;;;4.63;1.30;;;19.40;99.90;;;;;;4905041;29;20052;-82
2022/10/23 11:38:35;;;;;;;4.07;1.27;;;19.50;99.90;;;;;;4918787;29;20044;-85
2022/10/23 11:41:17;;;;;;;5.70;1.20;;;19.50;99.90;;;;;;4912764;29;20137;-83
2022/10/23 11:44:00;;;;;;;4.55;1.30;;;19.60;99.90;;;;;;4901023;29;20214;-81
2022/10/23 11:46:35;;;;;;;5.72;2.17;;;19.70;99.90;;;;;;4917343;29;20179;-82
2022/10/23 11:49:04;;;;;;;8.13;1.60;;;19.70;99.90;;;;;;4900358;29;20467;-81
2022/10/23 11:51:39;;;;;;;3.70;1.00;;;19.80;99.90;;;;;;4908499;29;20056;-82
2022/10/23 11:54:23;;;;;;;4.07;1.00;;;19.70;99.90;;;;;;4926036;23;20052;-80
2022/10/23 11:56:55;;;;;;;4.95;1.20;;;19.70;99.90;;;;;;4895523;29;20049;-82
2022/10/23 11:59:26;;;;;;;4.03;1.00;;;19.60;99.90;;;;;;4895962;29;20059;-78
2022/10/23 12:01:55;;;;;;;4.00;1.23;;;19.60;99.90;;;;;;4897444;29;20057;-83
2022/10/23 12:04:54;;;;;;;5.47;0.93;;;19.50;99.90;;;;;;4902627;29;20104;-82
2022/10/23 12:07:30;;;;;;;3.70;1.27;;;19.30;99.90;;;;;;4886435;29;20602;-81
2022/10/23 12:10:33;;;;;;;4.97;1.10;;;19.10;99.90;;;;;;4902196;29;20049;-83
2022/10/23 12:13:05;;;;;;;3.05;1.13;;;19.00;99.90;;;;;;4898190;29;20055;-81
2022/10/23 12:15:33;;;;;;;3.95;1.30;;;18.90;99.90;;;;;;4895090;29;20056;-84
2022/10/23 12:18:14;;;;;;;2.70;1.13;;;18.80;99.90;;;;;;4902320;29;20055;-83
2022/10/23 12:20:55;;;;;;;6.55;1.10;;;18.80;99.90;;;;;;4901380;29;20055;-82
2022/10/23 12:23:52;;;;;;;3.97;1.42;;;18.70;99.90;;;;;;4899974;29;20048;-83
2022/10/23 12:26:32;;;;;;;2.25;1.00;;;18.70;99.90;;;;;;4906704;29;20605;-80
2022/10/23 12:29:16;;;;;;;3.60;1.10;;;18.70;99.90;;;;;;4901153;29;20055;-81
2022/10/23 12:31:56;;;;;;;4.50;1.10;;;18.70;99.90;;;;;;4899338;29;20055;-80
2022/10/23 12:34:38;;;;;;;3.40;1.00;;;18.70;99.90;;;;;;4901092;29;20049;-81
2022/10/23 12:37:31;;;;;;;7.68;1.75;;;18.70;99.90;;;;;;4900171;29;20080;-81
2022/10/23 12:39:58;;;;;;;3.42;1.20;;;18.80;99.90;;;;;;4899483;29;20048;-83
2022/10/23 12:42:27;;;;;;;5.00;1.42;;;18.90;99.90;;;;;;4902748;29;20141;-83
2022/10/23 12:45:01;;;;;;;1.90;1.38;;;19.10;99.90;;;;;;4902571;29;20063;-84
2022/10/23 12:47:28;;;;;;;7.00;1.52;;;19.30;99.90;;;;;;4902243;29;20048;-84
2022/10/23 12:49:55;;;;;;;5.65;1.35;;;19.40;99.90;;;;;;4902212;29;20056;-83
2022/10/23 12:52:24;;;;;;;3.80;1.67;;;19.40;99.90;;;;;;4902219;29;20053;-82
2022/10/23 12:54:51;;;;;;;1.52;1.10;;;19.50;99.90;;;;;;4898250;29;20067;-83
2022/10/23 12:57:26;;;;;;;2.42;1.42;;;19.50;99.90;;;;;;4901168;29;20056;-83
2022/10/23 13:00:07;;;;;;;3.75;1.00;;;19.70;99.90;;;;;;4902211;29;20063;-83
2022/10/23 13:02:33;;;;;;;;;;;19.70;99.90;;;;;;4902753;29;20379;-83
2022/10/23 13:05:04;;;;;;;3.00;1.42;;;19.70;99.90;;;;;;4901437;29;19945;-83
2022/10/23 13:07:32;;;;;;;;;;;19.80;99.90;;;;;;4898844;29;20060;-81
2022/10/23 13:10:00;;;;;;;4.05;1.27;;;19.90;99.90;;;;;;4901848;29;20018;-80
2022/10/23 13:12:30;;;;;;;3.13;1.20;;;19.90;99.90;;;;;;4905014;29;20056;-80
2022/10/23 13:15:01;;;;;;;4.25;1.27;;;19.80;99.90;;;;;;4904623;29;20415;-80
2022/10/23 13:17:43;;;;;;;3.83;0.98;;;19.80;99.90;;;;;;4902666;29;20061;-82
2022/10/23 13:20:21;;;;;;;5.72;1.45;;;19.90;99.90;;;;;;4898204;29;20049;-84